sensor_id;sensor_type;location;lat;lon;timestamp;temperature;humidity
7325;DHT22;3703;48.016;7.802;2023-06-22T00:02:22;24.70;1.00
7325;DHT22;3703;48.016;7.802;2023-06-22T00:04:50;24.90;1.00
7325;DHT22;3703;48.016;7.802;2023-06-22T00:07:17;25.10;1.00
7325;DHT22;3703;48.016;7.802;2023-06-22T00:09:45;25.10;1.00
7325;DHT22;3703;48.016;7.802;2023-06-22T00:12:12;25.00;1.00
7325;DHT22;3703;48.016;7.802;2023-06-22T00:14:39;25.10;1.00
7325;DHT22;3703;48.016;7.802;2023-06-22T00:17:06;25.00;1.00
7325;DHT22;3703;48.016;7.802;2023-06-22T00:19:33;25.00;1.00
7325;DHT22;3703;48.016;7.802;2023-06-22T00:22:02;25.00;1.00
7325;DHT22;3703;48.016;7.802;2023-06-22T00:24:30;25.00;1.00
7325;DHT22;3703;48.016;7.802;2023-06-22T00:26:57;25.00;1.00
7325;DHT22;3703;48.016;7.802;2023-06-22T00:29:24;25.00;1.00
7325;DHT22;3703;48.016;7.802;2023-06-22T00:31:51;24.90;1.00
7325;DHT22;3703;48.016;7.802;2023-06-22T00:36:45;25.00;1.00
7325;DHT22;3703;48.016;7.802;2023-06-22T00:39:14;25.00;1.00
7325;DHT22;3703;48.016;7.802;2023-06-22T00:41:42;25.00;1.00
7325;DHT22;3703;48.016;7.802;2023-06-22T00:44:09;24.90;1.00
7325;DHT22;3703;48.016;7.802;2023-06-22T00:46:36;24.90;1.00
7325;DHT22;3703;48.016;7.802;2023-06-22T00:49:03;24.50;1.00
7325;DHT22;3703;48.016;7.802;2023-06-22T00:51:31;24.50;1.00
7325;DHT22;3703;48.016;7.802;2023-06-22T00:53:59;24.50;1.00
7325;DHT22;3703;48.016;7.802;2023-06-22T00:56:27;24.50;1.00
7325;DHT22;3703;48.016;7.802;2023-06-22T00:58:55;23.90;1.00
7325;DHT22;3703;48.016;7.802;2023-06-22T01:01:25;23.10;1.00
7325;DHT22;3703;48.016;7.802;2023-06-22T01:03:52;23.00;1.00
7325;DHT22;3703;48.016;7.802;2023-06-22T01:06:26;23.40;1.00
7325;DHT22;3703;48.016;7.802;2023-06-22T01:09:04;23.70;1.00
7325;DHT22;3703;48.016;7.802;2023-06-22T01:11:39;23.50;1.00
7325;DHT22;3703;48.016;7.802;2023-06-22T01:14:14;23.50;1.00
7325;DHT22;3703;48.016;7.802;2023-06-22T01:16:44;23.60;1.00
7325;DHT22;3703;48.016;7.802;2023-06-22T01:19:26;23.90;1.00
7325;DHT22;3703;48.016;7.802;2023-06-22T01:22:03;24.10;1.00
7325;DHT22;3703;48.016;7.802;2023-06-22T01:24:48;24.00;1.00
7325;DHT22;3703;48.016;7.802;2023-06-22T01:27:33;23.90;1.00
7325;DHT22;3703;48.016;7.802;2023-06-22T01:30:10;23.90;1.00
7325;DHT22;3703;48.016;7.802;2023-06-22T01:32:39;24.10;1.00
7325;DHT22;3703;48.016;7.802;2023-06-22T01:35:08;24.10;1.00
7325;DHT22;3703;48.016;7.802;2023-06-22T01:37:38;23.90;1.00
7325;DHT22;3703;48.016;7.802;2023-06-22T01:40:07;23.90;1.00
7325;DHT22;3703;48.016;7.802;2023-06-22T01:42:36;23.90;1.00
7325;DHT22;3703;48.016;7.802;2023-06-22T01:45:05;24.20;1.00
7325;DHT22;3703;48.016;7.802;2023-06-22T01:47:35;24.20;1.00
7325;DHT22;3703;48.016;7.802;2023-06-22T01:50:04;24.20;1.00
7325;DHT22;3703;48.016;7.802;2023-06-22T01:52:32;23.00;1.00
7325;DHT22;3703;48.016;7.802;2023-06-22T01:54:59;23.60;1.00
7325;DHT22;3703;48.016;7.802;2023-06-22T01:57:26;23.60;1.00
7325;DHT22;3703;48.016;7.802;2023-06-22T01:59:59;23.60;1.00
7325;DHT22;3703;48.016;7.802;2023-06-22T02:02:32;23.70;1.00
7325;DHT22;3703;48.016;7.802;2023-06-22T02:05:06;23.90;1.00
7325;DHT22;3703;48.016;7.802;2023-06-22T02:07:41;24.10;1.00
7325;DHT22;3703;48.016;7.802;2023-06-22T02:10:12;24.10;1.00
7325;DHT22;3703;48.016;7.802;2023-06-22T02:12:42;24.30;1.00
7325;DHT22;3703;48.016;7.802;2023-06-22T02:15:11;24.50;1.00
7325;DHT22;3703;48.016;7.802;2023-06-22T02:17:42;24.40;1.00
7325;DHT22;3703;48.016;7.802;2023-06-22T02:20:12;24.30;1.00
7325;DHT22;3703;48.016;7.802;2023-06-22T02:22:40;24.30;1.00
7325;DHT22;3703;48.016;7.802;2023-06-22T02:25:07;24.30;1.00
7325;DHT22;3703;48.016;7.802;2023-06-22T02:27:35;24.20;1.00
7325;DHT22;3703;48.016;7.802;2023-06-22T02:30:07;24.10;1.00
7325;DHT22;3703;48.016;7.802;2023-06-22T02:32:34;24.20;1.00
7325;DHT22;3703;48.016;7.802;2023-06-22T02:35:04;24.30;1.00
7325;DHT22;3703;48.016;7.802;2023-06-22T02:37:32;24.30;1.00
7325;DHT22;3703;48.016;7.802;2023-06-22T02:39:59;24.20;1.00
7325;DHT22;3703;48.016;7.802;2023-06-22T02:42:26;24.20;1.00
7325;DHT22;3703;48.016;7.802;2023-06-22T02:44:54;24.20;1.00
7325;DHT22;3703;48.016;7.802;2023-06-22T02:47:21;23.60;1.00
7325;DHT22;3703;48.016;7.802;2023-06-22T02:49:48;24.20;1.00
7325;DHT22;3703;48.016;7.802;2023-06-22T02:52:17;24.10;1.00
7325;DHT22;3703;48.016;7.802;2023-06-22T02:54:44;24.00;1.00
7325;DHT22;3703;48.016;7.802;2023-06-22T02:57:12;24.00;1.00
7325;DHT22;3703;48.016;7.802;2023-06-22T02:59:40;23.90;1.00
7325;DHT22;3703;48.016;7.802;2023-06-22T03:02:07;24.00;1.00
7325;DHT22;3703;48.016;7.802;2023-06-22T03:04:34;23.90;1.00
7325;DHT22;3703;48.016;7.802;2023-06-22T03:07:02;24.00;1.00
7325;DHT22;3703;48.016;7.802;2023-06-22T03:09:31;23.90;1.00
7325;DHT22;3703;48.016;7.802;2023-06-22T03:11:58;23.90;1.00
7325;DHT22;3703;48.016;7.802;2023-06-22T03:14:26;23.90;1.00
7325;DHT22;3703;48.016;7.802;2023-06-22T03:16:53;23.80;1.00
7325;DHT22;3703;48.016;7.802;2023-06-22T03:19:20;23.50;1.00
7325;DHT22;3703;48.016;7.802;2023-06-22T03:21:47;23.40;1.00
7325;DHT22;3703;48.016;7.802;2023-06-22T03:24:14;23.20;1.00
7325;DHT22;3703;48.016;7.802;2023-06-22T03:26:43;23.30;1.00
7325;DHT22;3703;48.016;7.802;2023-06-22T03:29:12;23.30;1.00
7325;DHT22;3703;48.016;7.802;2023-06-22T03:31:39;23.40;1.00
7325;DHT22;3703;48.016;7.802;2023-06-22T03:34:06;23.30;1.00
7325;DHT22;3703;48.016;7.802;2023-06-22T03:36:33;23.30;1.00
7325;DHT22;3703;48.016;7.802;2023-06-22T03:39:01;23.40;1.00
7325;DHT22;3703;48.016;7.802;2023-06-22T03:41:28;23.50;1.00
7325;DHT22;3703;48.016;7.802;2023-06-22T03:43:57;23.40;1.00
7325;DHT22;3703;48.016;7.802;2023-06-22T03:46:24;23.50;1.00
7325;DHT22;3703;48.016;7.802;2023-06-22T03:48:51;23.50;1.00
7325;DHT22;3703;48.016;7.802;2023-06-22T03:51:18;23.50;1.00
7325;DHT22;3703;48.016;7.802;2023-06-22T03:53:46;23.50;1.00
7325;DHT22;3703;48.016;7.802;2023-06-22T03:56:13;23.40;1.00
7325;DHT22;3703;48.016;7.802;2023-06-22T03:58:46;23.30;1.00
7325;DHT22;3703;48.016;7.802;2023-06-22T04:01:14;23.40;1.00
7325;DHT22;3703;48.016;7.802;2023-06-22T04:03:42;23.20;1.00
7325;DHT22;3703;48.016;7.802;2023-06-22T04:06:10;23.30;1.00
7325;DHT22;3703;48.016;7.802;2023-06-22T04:08:37;23.30;1.00
7325;DHT22;3703;48.016;7.802;2023-06-22T04:11:04;23.00;1.00
7325;DHT22;3703;48.016;7.802;2023-06-22T04:13:31;23.00;1.00
7325;DHT22;3703;48.016;7.802;2023-06-22T04:15:58;23.20;1.00
7325;DHT22;3703;48.016;7.802;2023-06-22T04:18:28;23.20;1.00
7325;DHT22;3703;48.016;7.802;2023-06-22T04:20:55;23.20;1.00
7325;DHT22;3703;48.016;7.802;2023-06-22T04:23:22;22.90;1.00
7325;DHT22;3703;48.016;7.802;2023-06-22T04:25:49;22.90;1.00
7325;DHT22;3703;48.016;7.802;2023-06-22T04:28:17;23.10;1.00
7325;DHT22;3703;48.016;7.802;2023-06-22T04:30:44;23.00;1.00
7325;DHT22;3703;48.016;7.802;2023-06-22T04:33:13;23.10;1.00
7325;DHT22;3703;48.016;7.802;2023-06-22T04:35:44;23.20;1.00
7325;DHT22;3703;48.016;7.802;2023-06-22T04:38:12;23.10;1.00
7325;DHT22;3703;48.016;7.802;2023-06-22T04:40:40;23.10;1.00
7325;DHT22;3703;48.016;7.802;2023-06-22T04:43:07;23.00;1.00
7325;DHT22;3703;48.016;7.802;2023-06-22T04:45:35;23.00;1.00
7325;DHT22;3703;48.016;7.802;2023-06-22T04:48:04;23.00;1.00
7325;DHT22;3703;48.016;7.802;2023-06-22T04:50:32;23.10;1.00
7325;DHT22;3703;48.016;7.802;2023-06-22T04:53:00;23.00;1.00
7325;DHT22;3703;48.016;7.802;2023-06-22T04:55:31;23.20;1.00
7325;DHT22;3703;48.016;7.802;2023-06-22T04:57:58;23.20;1.00
7325;DHT22;3703;48.016;7.802;2023-06-22T05:00:30;23.40;1.00
7325;DHT22;3703;48.016;7.802;2023-06-22T05:02:58;22.60;1.00
7325;DHT22;3703;48.016;7.802;2023-06-22T05:05:26;23.30;1.00
7325;DHT22;3703;48.016;7.802;2023-06-22T05:07:53;23.40;1.00
7325;DHT22;3703;48.016;7.802;2023-06-22T05:10:27;23.30;1.00
7325;DHT22;3703;48.016;7.802;2023-06-22T05:12:54;23.40;1.00
7325;DHT22;3703;48.016;7.802;2023-06-22T05:15:21;23.50;1.00
7325;DHT22;3703;48.016;7.802;2023-06-22T05:17:52;23.60;1.00
7325;DHT22;3703;48.016;7.802;2023-06-22T05:20:19;23.60;1.00
7325;DHT22;3703;48.016;7.802;2023-06-22T05:22:47;23.70;1.00
7325;DHT22;3703;48.016;7.802;2023-06-22T05:25:14;23.10;1.00
7325;DHT22;3703;48.016;7.802;2023-06-22T05:27:43;23.00;1.00
7325;DHT22;3703;48.016;7.802;2023-06-22T05:30:10;22.60;1.00
7325;DHT22;3703;48.016;7.802;2023-06-22T05:32:38;22.30;1.00
7325;DHT22;3703;48.016;7.802;2023-06-22T05:35:05;22.60;1.00
7325;DHT22;3703;48.016;7.802;2023-06-22T05:37:33;22.70;1.00
7325;DHT22;3703;48.016;7.802;2023-06-22T05:40:00;22.70;1.00
7325;DHT22;3703;48.016;7.802;2023-06-22T05:42:29;23.10;1.00
7325;DHT22;3703;48.016;7.802;2023-06-22T05:44:57;22.60;1.00
7325;DHT22;3703;48.016;7.802;2023-06-22T05:47:25;22.60;1.00
7325;DHT22;3703;48.016;7.802;2023-06-22T05:49:52;22.70;1.00
7325;DHT22;3703;48.016;7.802;2023-06-22T05:52:19;22.90;1.00
7325;DHT22;3703;48.016;7.802;2023-06-22T05:54:46;23.10;1.00
7325;DHT22;3703;48.016;7.802;2023-06-22T05:57:13;23.20;1.00
7325;DHT22;3703;48.016;7.802;2023-06-22T05:59:41;22.90;1.00
7325;DHT22;3703;48.016;7.802;2023-06-22T06:02:09;23.40;1.00
7325;DHT22;3703;48.016;7.802;2023-06-22T06:04:36;23.40;1.00
7325;DHT22;3703;48.016;7.802;2023-06-22T06:07:04;22.70;1.00
7325;DHT22;3703;48.016;7.802;2023-06-22T06:09:31;22.80;1.00
7325;DHT22;3703;48.016;7.802;2023-06-22T06:11:58;22.80;1.00
7325;DHT22;3703;48.016;7.802;2023-06-22T06:14:25;22.40;1.00
7325;DHT22;3703;48.016;7.802;2023-06-22T06:16:53;22.20;9.70
7325;DHT22;3703;48.016;7.802;2023-06-22T06:19:21;22.30;6.40
7325;DHT22;3703;48.016;7.802;2023-06-22T06:21:48;22.00;13.60
7325;DHT22;3703;48.016;7.802;2023-06-22T06:24:16;22.20;15.70
7325;DHT22;3703;48.016;7.802;2023-06-22T06:26:43;22.70;1.00
7325;DHT22;3703;48.016;7.802;2023-06-22T06:29:10;22.90;1.00
7325;DHT22;3703;48.016;7.802;2023-06-22T06:31:37;23.30;1.00
7325;DHT22;3703;48.016;7.802;2023-06-22T06:34:04;23.40;1.00
7325;DHT22;3703;48.016;7.802;2023-06-22T06:36:33;23.60;1.00
7325;DHT22;3703;48.016;7.802;2023-06-22T06:39:00;23.50;1.00
7325;DHT22;3703;48.016;7.802;2023-06-22T06:41:27;23.70;1.00
7325;DHT22;3703;48.016;7.802;2023-06-22T06:43:55;23.30;1.00
7325;DHT22;3703;48.016;7.802;2023-06-22T06:46:22;22.90;1.00
7325;DHT22;3703;48.016;7.802;2023-06-22T06:48:49;23.30;1.00
7325;DHT22;3703;48.016;7.802;2023-06-22T06:51:16;23.10;1.00
7325;DHT22;3703;48.016;7.802;2023-06-22T06:53:44;22.70;1.00
7325;DHT22;3703;48.016;7.802;2023-06-22T06:56:11;25.70;28.70
7325;DHT22;3703;48.016;7.802;2023-06-22T06:58:40;22.30;27.90
7325;DHT22;3703;48.016;7.802;2023-06-22T07:01:10;22.30;25.00
7325;DHT22;3703;48.016;7.802;2023-06-22T07:03:37;22.70;12.90
7325;DHT22;3703;48.016;7.802;2023-06-22T07:06:05;23.60;1.00
7325;DHT22;3703;48.016;7.802;2023-06-22T07:08:32;23.60;1.00
7325;DHT22;3703;48.016;7.802;2023-06-22T07:11:02;23.80;1.00
7325;DHT22;3703;48.016;7.802;2023-06-22T07:13:29;23.80;1.00
7325;DHT22;3703;48.016;7.802;2023-06-22T07:15:56;24.10;1.00
7325;DHT22;3703;48.016;7.802;2023-06-22T07:18:24;23.60;1.00
7325;DHT22;3703;48.016;7.802;2023-06-22T07:20:52;24.20;1.00
7325;DHT22;3703;48.016;7.802;2023-06-22T07:23:19;24.00;1.00
7325;DHT22;3703;48.016;7.802;2023-06-22T07:25:46;23.60;1.00
7325;DHT22;3703;48.016;7.802;2023-06-22T07:28:16;23.80;1.00
7325;DHT22;3703;48.016;7.802;2023-06-22T07:30:43;24.10;1.00
7325;DHT22;3703;48.016;7.802;2023-06-22T07:33:10;24.20;1.00
7325;DHT22;3703;48.016;7.802;2023-06-22T07:35:37;24.10;1.00
7325;DHT22;3703;48.016;7.802;2023-06-22T07:38:05;24.30;1.00
7325;DHT22;3703;48.016;7.802;2023-06-22T07:40:32;24.50;1.00
7325;DHT22;3703;48.016;7.802;2023-06-22T07:43:00;24.10;1.00
7325;DHT22;3703;48.016;7.802;2023-06-22T07:45:30;24.20;1.00
7325;DHT22;3703;48.016;7.802;2023-06-22T07:47:59;24.40;1.00
7325;DHT22;3703;48.016;7.802;2023-06-22T07:50:26;24.80;1.00
7325;DHT22;3703;48.016;7.802;2023-06-22T07:52:53;25.20;1.00
7325;DHT22;3703;48.016;7.802;2023-06-22T07:55:20;25.00;1.00
7325;DHT22;3703;48.016;7.802;2023-06-22T07:57:48;24.60;1.00
7325;DHT22;3703;48.016;7.802;2023-06-22T08:00:17;24.60;1.00
7325;DHT22;3703;48.016;7.802;2023-06-22T08:02:47;24.90;1.00
7325;DHT22;3703;48.016;7.802;2023-06-22T08:05:15;25.10;1.00
7325;DHT22;3703;48.016;7.802;2023-06-22T08:07:43;24.90;1.00
7325;DHT22;3703;48.016;7.802;2023-06-22T08:10:10;24.30;1.00
7325;DHT22;3703;48.016;7.802;2023-06-22T08:12:38;24.20;1.00
7325;DHT22;3703;48.016;7.802;2023-06-22T08:15:07;24.60;1.00
7325;DHT22;3703;48.016;7.802;2023-06-22T08:17:36;24.70;1.00
7325;DHT22;3703;48.016;7.802;2023-06-22T08:20:06;25.10;1.00
7325;DHT22;3703;48.016;7.802;2023-06-22T08:22:37;25.40;1.00
7325;DHT22;3703;48.016;7.802;2023-06-22T08:25:05;25.50;1.00
7325;DHT22;3703;48.016;7.802;2023-06-22T08:27:33;25.50;1.00
7325;DHT22;3703;48.016;7.802;2023-06-22T08:30:01;25.50;1.00
7325;DHT22;3703;48.016;7.802;2023-06-22T08:32:29;25.60;1.00
7325;DHT22;3703;48.016;7.802;2023-06-22T08:34:58;25.60;1.00
7325;DHT22;3703;48.016;7.802;2023-06-22T08:37:27;25.60;1.00
7325;DHT22;3703;48.016;7.802;2023-06-22T08:39:58;25.70;1.00
7325;DHT22;3703;48.016;7.802;2023-06-22T08:42:25;26.20;1.00
7325;DHT22;3703;48.016;7.802;2023-06-22T08:44:52;26.40;1.00
7325;DHT22;3703;48.016;7.802;2023-06-22T08:47:20;26.60;1.00
7325;DHT22;3703;48.016;7.802;2023-06-22T08:49:48;26.70;1.00
7325;DHT22;3703;48.016;7.802;2023-06-22T08:52:16;26.50;1.00
7325;DHT22;3703;48.016;7.802;2023-06-22T08:54:45;26.70;1.00
7325;DHT22;3703;48.016;7.802;2023-06-22T08:57:12;26.90;1.00
7325;DHT22;3703;48.016;7.802;2023-06-22T08:59:39;27.20;99.90
7325;DHT22;3703;48.016;7.802;2023-06-22T09:02:07;27.30;99.90
7325;DHT22;3703;48.016;7.802;2023-06-22T09:04:34;27.70;99.90
7325;DHT22;3703;48.016;7.802;2023-06-22T09:07:03;28.10;99.90
7325;DHT22;3703;48.016;7.802;2023-06-22T09:09:30;28.50;1.00
7325;DHT22;3703;48.016;7.802;2023-06-22T09:11:59;28.80;99.90
7325;DHT22;3703;48.016;7.802;2023-06-22T09:14:26;28.90;1.00
7325;DHT22;3703;48.016;7.802;2023-06-22T09:16:54;29.10;1.00
7325;DHT22;3703;48.016;7.802;2023-06-22T09:19:21;29.30;99.90
7325;DHT22;3703;48.016;7.802;2023-06-22T09:21:48;29.00;99.90
7325;DHT22;3703;48.016;7.802;2023-06-22T09:24:15;29.20;1.00
7325;DHT22;3703;48.016;7.802;2023-06-22T09:26:43;29.60;99.90
7325;DHT22;3703;48.016;7.802;2023-06-22T09:29:11;29.80;99.90
7325;DHT22;3703;48.016;7.802;2023-06-22T09:31:38;30.10;1.00
7325;DHT22;3703;48.016;7.802;2023-06-22T09:34:06;29.90;99.90
7325;DHT22;3703;48.016;7.802;2023-06-22T09:36:33;30.00;1.00
7325;DHT22;3703;48.016;7.802;2023-06-22T09:39:01;30.00;86.70
7325;DHT22;3703;48.016;7.802;2023-06-22T09:41:31;29.60;99.90
7325;DHT22;3703;48.016;7.802;2023-06-22T09:43:58;29.90;1.00
7325;DHT22;3703;48.016;7.802;2023-06-22T09:46:27;29.50;56.70
7325;DHT22;3703;48.016;7.802;2023-06-22T09:48:54;29.60;1.00
7325;DHT22;3703;48.016;7.802;2023-06-22T09:51:21;29.80;1.00
7325;DHT22;3703;48.016;7.802;2023-06-22T09:53:49;29.90;1.00
7325;DHT22;3703;48.016;7.802;2023-06-22T09:56:16;30.20;99.90
7325;DHT22;3703;48.016;7.802;2023-06-22T09:58:44;30.10;1.00
7325;DHT22;3703;48.016;7.802;2023-06-22T10:01:12;30.30;99.90
7325;DHT22;3703;48.016;7.802;2023-06-22T10:03:41;30.50;1.00
7325;DHT22;3703;48.016;7.802;2023-06-22T10:06:09;30.60;99.90
7325;DHT22;3703;48.016;7.802;2023-06-22T10:08:36;30.40;99.90
7325;DHT22;3703;48.016;7.802;2023-06-22T10:11:03;30.60;8.40
7325;DHT22;3703;48.016;7.802;2023-06-22T10:13:30;30.40;1.00
7325;DHT22;3703;48.016;7.802;2023-06-22T10:15:58;30.20;99.90
7325;DHT22;3703;48.016;7.802;2023-06-22T10:18:25;30.50;99.90
7325;DHT22;3703;48.016;7.802;2023-06-22T10:20:53;30.40;99.90
7325;DHT22;3703;48.016;7.802;2023-06-22T10:23:20;30.40;99.90
7325;DHT22;3703;48.016;7.802;2023-06-22T10:25:48;30.40;1.00
7325;DHT22;3703;48.016;7.802;2023-06-22T10:28:15;30.40;99.90
7325;DHT22;3703;48.016;7.802;2023-06-22T10:30:43;30.30;99.90
7325;DHT22;3703;48.016;7.802;2023-06-22T10:33:11;30.00;1.00
7325;DHT22;3703;48.016;7.802;2023-06-22T10:35:39;30.00;99.90
7325;DHT22;3703;48.016;7.802;2023-06-22T10:38:07;30.10;1.00
7325;DHT22;3703;48.016;7.802;2023-06-22T10:40:34;30.10;99.90
7325;DHT22;3703;48.016;7.802;2023-06-22T10:43:01;30.50;1.00
7325;DHT22;3703;48.016;7.802;2023-06-22T10:45:31;30.60;99.90
7325;DHT22;3703;48.016;7.802;2023-06-22T10:47:58;29.60;99.90
7325;DHT22;3703;48.016;7.802;2023-06-22T10:50:26;29.40;1.00
7325;DHT22;3703;48.016;7.802;2023-06-22T10:52:54;29.00;99.90
7325;DHT22;3703;48.016;7.802;2023-06-22T10:55:22;28.70;1.00
7325;DHT22;3703;48.016;7.802;2023-06-22T10:57:49;28.60;1.00
7325;DHT22;3703;48.016;7.802;2023-06-22T11:00:18;28.60;99.90
7325;DHT22;3703;48.016;7.802;2023-06-22T11:02:46;28.70;99.90
7325;DHT22;3703;48.016;7.802;2023-06-22T11:05:14;28.80;99.90
7325;DHT22;3703;48.016;7.802;2023-06-22T11:07:42;29.30;99.90
7325;DHT22;3703;48.016;7.802;2023-06-22T11:10:10;29.50;1.00
7325;DHT22;3703;48.016;7.802;2023-06-22T11:12:38;30.10;99.90
7325;DHT22;3703;48.016;7.802;2023-06-22T11:15:07;30.60;1.00
7325;DHT22;3703;48.016;7.802;2023-06-22T11:17:35;30.60;1.00
7325;DHT22;3703;48.016;7.802;2023-06-22T11:20:02;30.20;66.90
7325;DHT22;3703;48.016;7.802;2023-06-22T11:22:35;29.80;99.90
7325;DHT22;3703;48.016;7.802;2023-06-22T11:25:03;29.40;99.90
7325;DHT22;3703;48.016;7.802;2023-06-22T11:27:30;29.50;1.00
7325;DHT22;3703;48.016;7.802;2023-06-22T11:29:59;29.30;1.00
7325;DHT22;3703;48.016;7.802;2023-06-22T11:32:26;28.50;99.90
7325;DHT22;3703;48.016;7.802;2023-06-22T11:34:53;29.00;99.90
7325;DHT22;3703;48.016;7.802;2023-06-22T11:37:20;29.10;99.90
7325;DHT22;3703;48.016;7.802;2023-06-22T11:39:48;28.80;1.00
7325;DHT22;3703;48.016;7.802;2023-06-22T11:42:15;28.50;99.90
7325;DHT22;3703;48.016;7.802;2023-06-22T11:44:42;28.30;99.90
7325;DHT22;3703;48.016;7.802;2023-06-22T11:47:11;28.50;99.90
7325;DHT22;3703;48.016;7.802;2023-06-22T11:49:38;28.30;99.90
7325;DHT22;3703;48.016;7.802;2023-06-22T11:52:06;28.60;99.90
7325;DHT22;3703;48.016;7.802;2023-06-22T11:54:33;28.90;99.90
7325;DHT22;3703;48.016;7.802;2023-06-22T11:57:00;29.00;99.90
7325;DHT22;3703;48.016;7.802;2023-06-22T11:59:27;29.30;99.90
7325;DHT22;3703;48.016;7.802;2023-06-22T12:01:55;29.40;1.00
7325;DHT22;3703;48.016;7.802;2023-06-22T12:04:25;29.30;1.00
7325;DHT22;3703;48.016;7.802;2023-06-22T12:06:52;29.50;1.00
7325;DHT22;3703;48.016;7.802;2023-06-22T12:09:19;29.40;99.90
7325;DHT22;3703;48.016;7.802;2023-06-22T12:11:46;29.50;99.90
7325;DHT22;3703;48.016;7.802;2023-06-22T12:14:14;29.10;1.00
7325;DHT22;3703;48.016;7.802;2023-06-22T12:16:41;29.20;99.90
7325;DHT22;3703;48.016;7.802;2023-06-22T12:19:09;29.10;57.90
7325;DHT22;3703;48.016;7.802;2023-06-22T12:21:39;28.80;99.90
7325;DHT22;3703;48.016;7.802;2023-06-22T12:24:07;28.50;99.90
7325;DHT22;3703;48.016;7.802;2023-06-22T12:26:34;28.20;1.00
7325;DHT22;3703;48.016;7.802;2023-06-22T12:29:02;28.00;1.00
7325;DHT22;3703;48.016;7.802;2023-06-22T12:31:29;28.00;1.00
7325;DHT22;3703;48.016;7.802;2023-06-22T12:33:56;28.00;1.00
7325;DHT22;3703;48.016;7.802;2023-06-22T12:36:23;27.90;1.00
7325;DHT22;3703;48.016;7.802;2023-06-22T12:38:52;27.90;1.00
7325;DHT22;3703;48.016;7.802;2023-06-22T12:41:19;27.60;1.00
7325;DHT22;3703;48.016;7.802;2023-06-22T12:43:47;27.70;1.00
7325;DHT22;3703;48.016;7.802;2023-06-22T12:46:14;27.70;1.00
7325;DHT22;3703;48.016;7.802;2023-06-22T12:48:41;27.70;1.00
7325;DHT22;3703;48.016;7.802;2023-06-22T12:51:08;27.80;1.00
7325;DHT22;3703;48.016;7.802;2023-06-22T12:53:36;27.80;99.90
7325;DHT22;3703;48.016;7.802;2023-06-22T12:56:05;27.90;99.90
7325;DHT22;3703;48.016;7.802;2023-06-22T12:58:32;27.90;99.90
7325;DHT22;3703;48.016;7.802;2023-06-22T13:00:59;27.90;99.90
7325;DHT22;3703;48.016;7.802;2023-06-22T13:03:27;28.00;86.90
7325;DHT22;3703;48.016;7.802;2023-06-22T13:05:54;28.00;1.00
7325;DHT22;3703;48.016;7.802;2023-06-22T13:08:21;28.00;1.00
7325;DHT22;3703;48.016;7.802;2023-06-22T13:10:48;28.10;99.90
7325;DHT22;3703;48.016;7.802;2023-06-22T13:13:17;28.10;99.90
7325;DHT22;3703;48.016;7.802;2023-06-22T13:15:44;28.10;99.90
7325;DHT22;3703;48.016;7.802;2023-06-22T13:18:11;27.90;99.90
7325;DHT22;3703;48.016;7.802;2023-06-22T13:20:39;27.90;99.90
7325;DHT22;3703;48.016;7.802;2023-06-22T13:23:06;28.00;99.90
7325;DHT22;3703;48.016;7.802;2023-06-22T13:25:33;27.70;1.00
7325;DHT22;3703;48.016;7.802;2023-06-22T13:28:01;27.60;1.00
7325;DHT22;3703;48.016;7.802;2023-06-22T13:30:29;27.80;28.70
7325;DHT22;3703;48.016;7.802;2023-06-22T13:32:57;27.90;1.00
7325;DHT22;3703;48.016;7.802;2023-06-22T13:35:25;27.90;95.00
7325;DHT22;3703;48.016;7.802;2023-06-22T13:37:52;27.80;61.80
7325;DHT22;3703;48.016;7.802;2023-06-22T13:40:19;27.80;1.00
7325;DHT22;3703;48.016;7.802;2023-06-22T13:42:46;27.80;62.70
7325;DHT22;3703;48.016;7.802;2023-06-22T13:45:14;27.60;99.90
7325;DHT22;3703;48.016;7.802;2023-06-22T13:47:44;27.60;77.20
7325;DHT22;3703;48.016;7.802;2023-06-22T13:50:11;27.50;1.00
7325;DHT22;3703;48.016;7.802;2023-06-22T13:52:39;27.40;1.00
7325;DHT22;3703;48.016;7.802;2023-06-22T13:55:08;27.40;1.00
7325;DHT22;3703;48.016;7.802;2023-06-22T13:57:36;27.20;64.30
7325;DHT22;3703;48.016;7.802;2023-06-22T14:00:04;27.30;18.30
7325;DHT22;3703;48.016;7.802;2023-06-22T14:02:33;27.20;99.90
7325;DHT22;3703;48.016;7.802;2023-06-22T14:05:02;27.10;99.90
7325;DHT22;3703;48.016;7.802;2023-06-22T14:07:29;27.20;99.90
7325;DHT22;3703;48.016;7.802;2023-06-22T14:09:57;27.20;99.40
7325;DHT22;3703;48.016;7.802;2023-06-22T14:12:24;27.20;99.90
7325;DHT22;3703;48.016;7.802;2023-06-22T14:14:52;27.10;1.00
7325;DHT22;3703;48.016;7.802;2023-06-22T14:17:19;27.10;1.00
7325;DHT22;3703;48.016;7.802;2023-06-22T14:19:51;27.00;1.00
7325;DHT22;3703;48.016;7.802;2023-06-22T14:22:20;27.00;35.10
7325;DHT22;3703;48.016;7.802;2023-06-22T14:24:48;27.10;1.00
7325;DHT22;3703;48.016;7.802;2023-06-22T14:27:16;27.20;1.00
7325;DHT22;3703;48.016;7.802;2023-06-22T14:29:43;27.20;1.00
7325;DHT22;3703;48.016;7.802;2023-06-22T14:32:10;27.20;99.90
7325;DHT22;3703;48.016;7.802;2023-06-22T14:34:38;27.30;1.00
7325;DHT22;3703;48.016;7.802;2023-06-22T14:37:06;27.30;99.90
7325;DHT22;3703;48.016;7.802;2023-06-22T14:39:36;27.30;99.90
7325;DHT22;3703;48.016;7.802;2023-06-22T14:42:04;27.40;99.90
7325;DHT22;3703;48.016;7.802;2023-06-22T14:44:31;27.60;99.90
7325;DHT22;3703;48.016;7.802;2023-06-22T14:46:59;28.00;99.90
7325;DHT22;3703;48.016;7.802;2023-06-22T14:49:26;28.20;1.00
7325;DHT22;3703;48.016;7.802;2023-06-22T14:51:54;28.40;1.00
7325;DHT22;3703;48.016;7.802;2023-06-22T14:54:21;28.50;1.00
7325;DHT22;3703;48.016;7.802;2023-06-22T14:56:50;28.50;99.90
7325;DHT22;3703;48.016;7.802;2023-06-22T14:59:17;28.40;1.00
7325;DHT22;3703;48.016;7.802;2023-06-22T15:01:45;28.50;99.90
7325;DHT22;3703;48.016;7.802;2023-06-22T15:04:12;28.20;7.80
7325;DHT22;3703;48.016;7.802;2023-06-22T15:06:39;28.30;99.90
7325;DHT22;3703;48.016;7.802;2023-06-22T15:09:07;28.20;99.90
7325;DHT22;3703;48.016;7.802;2023-06-22T15:11:35;28.20;1.00
7325;DHT22;3703;48.016;7.802;2023-06-22T15:14:03;28.20;99.90
7325;DHT22;3703;48.016;7.802;2023-06-22T15:16:31;28.50;99.90
7325;DHT22;3703;48.016;7.802;2023-06-22T15:18:58;28.60;99.90
7325;DHT22;3703;48.016;7.802;2023-06-22T15:21:25;28.80;1.00
7325;DHT22;3703;48.016;7.802;2023-06-22T15:23:53;29.10;1.00
7325;DHT22;3703;48.016;7.802;2023-06-22T15:26:20;29.30;99.90
7325;DHT22;3703;48.016;7.802;2023-06-22T15:28:47;29.30;99.90
7325;DHT22;3703;48.016;7.802;2023-06-22T15:31:16;29.20;99.90
7325;DHT22;3703;48.016;7.802;2023-06-22T15:33:43;29.10;99.90
7325;DHT22;3703;48.016;7.802;2023-06-22T15:36:10;29.10;20.90
7325;DHT22;3703;48.016;7.802;2023-06-22T15:38:37;29.00;23.30
7325;DHT22;3703;48.016;7.802;2023-06-22T15:41:05;28.80;1.00
7325;DHT22;3703;48.016;7.802;2023-06-22T15:43:32;28.80;1.00
7325;DHT22;3703;48.016;7.802;2023-06-22T15:45:59;28.90;1.00
7325;DHT22;3703;48.016;7.802;2023-06-22T15:48:28;28.60;1.00
7325;DHT22;3703;48.016;7.802;2023-06-22T15:50:55;28.50;1.00
7325;DHT22;3703;48.016;7.802;2023-06-22T15:53:22;28.60;1.00
7325;DHT22;3703;48.016;7.802;2023-06-22T15:55:50;28.50;1.00
7325;DHT22;3703;48.016;7.802;2023-06-22T15:58:18;28.40;1.00
7325;DHT22;3703;48.016;7.802;2023-06-22T16:00:45;28.40;74.10
7325;DHT22;3703;48.016;7.802;2023-06-22T16:03:14;28.50;75.40
7325;DHT22;3703;48.016;7.802;2023-06-22T16:05:43;28.40;1.00
7325;DHT22;3703;48.016;7.802;2023-06-22T16:08:11;28.40;1.00
7325;DHT22;3703;48.016;7.802;2023-06-22T16:10:38;28.50;1.00
7325;DHT22;3703;48.016;7.802;2023-06-22T16:13:06;28.40;1.00
7325;DHT22;3703;48.016;7.802;2023-06-22T16:15:33;28.30;1.00
7325;DHT22;3703;48.016;7.802;2023-06-22T16:18:00;28.20;1.00
7325;DHT22;3703;48.016;7.802;2023-06-22T16:20:28;28.20;1.00
7325;DHT22;3703;48.016;7.802;2023-06-22T16:22:56;28.20;1.00